sensor_id;sensor_type;location;lat;lon;timestamp;pressure;altitude;pressure_sealevel;temperature;humidity
76122;BME280;70471;53.200;6.080;2023-11-19T00:00:24;100505.47;;;21.17;37.35
76122;BME280;70471;53.200;6.080;2023-11-19T00:05:16;100500.25;;;21.16;36.84
76122;BME280;70471;53.200;6.080;2023-11-19T00:10:09;100483.13;;;21.14;37.12
76122;BME280;70471;53.200;6.080;2023-11-19T00:15:04;100472.19;;;21.08;37.54
76122;BME280;70471;53.200;6.080;2023-11-19T00:19:56;100460.59;;;21.06;37.49
76122;BME280;70471;53.200;6.080;2023-11-19T00:24:48;100479.16;;;21.06;37.42
76122;BME280;70471;53.200;6.080;2023-11-19T00:29:40;100473.38;;;20.94;37.69
76122;BME280;70471;53.200;6.080;2023-11-19T00:34:34;100456.25;;;20.91;37.70
76122;BME280;70471;53.200;6.080;2023-11-19T00:39:27;100465.06;;;20.94;37.50
76122;BME280;70471;53.200;6.080;2023-11-19T00:44:20;100458.41;;;20.95;37.46
76122;BME280;70471;53.200;6.080;2023-11-19T00:49:12;100452.38;;;20.92;37.73
76122;BME280;70471;53.200;6.080;2023-11-19T00:54:05;100450.72;;;20.91;37.50
76122;BME280;70471;53.200;6.080;2023-11-19T00:58:58;100446.75;;;20.84;37.99
76122;BME280;70471;53.200;6.080;2023-11-19T01:03:50;100425.69;;;20.74;37.80
76122;BME280;70471;53.200;6.080;2023-11-19T01:08:42;100445.13;;;20.83;37.69
76122;BME280;70471;53.200;6.080;2023-11-19T01:13:37;100448.16;;;20.72;38.12
76122;BME280;70471;53.200;6.080;2023-11-19T01:18:30;100463.50;;;20.79;37.74
76122;BME280;70471;53.200;6.080;2023-11-19T01:23:22;100439.69;;;20.69;38.16
76122;BME280;70471;53.200;6.080;2023-11-19T01:28:14;100442.31;;;20.74;38.23
76122;BME280;70471;53.200;6.080;2023-11-19T01:33:08;100438.84;;;20.68;38.33
76122;BME280;70471;53.200;6.080;2023-11-19T01:38:00;100422.84;;;20.65;37.94
76122;BME280;70471;53.200;6.080;2023-11-19T01:42:52;100424.19;;;20.68;38.18
76122;BME280;70471;53.200;6.080;2023-11-19T01:47:45;100418.97;;;20.66;38.01
76122;BME280;70471;53.200;6.080;2023-11-19T01:52:39;100403.78;;;20.64;38.00
76122;BME280;70471;53.200;6.080;2023-11-19T01:57:31;100408.34;;;20.60;38.13
76122;BME280;70471;53.200;6.080;2023-11-19T02:02:24;100415.50;;;20.61;38.43
76122;BME280;70471;53.200;6.080;2023-11-19T02:07:17;100410.28;;;20.59;38.67
76122;BME280;70471;53.200;6.080;2023-11-19T02:12:11;100420.03;;;20.57;38.51
76122;BME280;70471;53.200;6.080;2023-11-19T02:17:04;100426.72;;;20.55;38.30
76122;BME280;70471;53.200;6.080;2023-11-19T02:21:56;100426.34;;;20.48;38.50
76122;BME280;70471;53.200;6.080;2023-11-19T02:26:54;100408.84;;;20.39;38.71
76122;BME280;70471;53.200;6.080;2023-11-19T02:31:49;100414.25;;;20.44;38.86
76122;BME280;70471;53.200;6.080;2023-11-19T02:36:41;100428.41;;;20.43;38.50
76122;BME280;70471;53.200;6.080;2023-11-19T02:41:33;100408.38;;;20.37;38.90
76122;BME280;70471;53.200;6.080;2023-11-19T02:46:25;100412.94;;;20.42;38.76
76122;BME280;70471;53.200;6.080;2023-11-19T02:51:20;100405.91;;;20.35;38.95
76122;BME280;70471;53.200;6.080;2023-11-19T02:56:12;100421.53;;;20.40;39.14
76122;BME280;70471;53.200;6.080;2023-11-19T03:01:11;100395.75;;;20.31;39.04
76122;BME280;70471;53.200;6.080;2023-11-19T03:06:13;100402.31;;;20.35;38.76
76122;BME280;70471;53.200;6.080;2023-11-19T03:11:08;100402.31;;;20.35;38.77
76122;BME280;70471;53.200;6.080;2023-11-19T03:16:00;100384.28;;;20.24;38.97
76122;BME280;70471;53.200;6.080;2023-11-19T03:20:52;100391.03;;;20.31;39.50
76122;BME280;70471;53.200;6.080;2023-11-19T03:25:44;100388.56;;;20.30;38.91
76122;BME280;70471;53.200;6.080;2023-11-19T03:30:38;100386.91;;;20.29;38.95
76122;BME280;70471;53.200;6.080;2023-11-19T03:35:30;100382.53;;;20.28;39.33
76122;BME280;70471;53.200;6.080;2023-11-19T03:40:23;100383.97;;;20.25;39.05
76122;BME280;70471;53.200;6.080;2023-11-19T03:45:16;100388.69;;;20.25;39.42
76122;BME280;70471;53.200;6.080;2023-11-19T03:50:10;100382.66;;;20.23;39.10
76122;BME280;70471;53.200;6.080;2023-11-19T03:55:02;100378.41;;;20.16;39.28
76122;BME280;70471;53.200;6.080;2023-11-19T03:59:56;100360.16;;;20.15;39.33
76122;BME280;70471;53.200;6.080;2023-11-19T04:04:49;100374.47;;;20.17;39.66
76122;BME280;70471;53.200;6.080;2023-11-19T04:09:42;100380.00;;;20.17;39.22
76122;BME280;70471;53.200;6.080;2023-11-19T04:14:36;100370.00;;;20.08;39.33
76122;BME280;70471;53.200;6.080;2023-11-19T04:19:28;100382.09;;;20.12;39.30
76122;BME280;70471;53.200;6.080;2023-11-19T04:24:20;100387.00;;;20.15;39.83
76122;BME280;70471;53.200;6.080;2023-11-19T04:29:16;100377.88;;;20.14;39.78
76122;BME280;70471;53.200;6.080;2023-11-19T04:34:10;100372.97;;;20.11;39.42
76122;BME280;70471;53.200;6.080;2023-11-19T04:39:03;100364.91;;;20.01;39.47
76122;BME280;70471;53.200;6.080;2023-11-19T04:43:59;100353.47;;;19.94;39.65
76122;BME280;70471;53.200;6.080;2023-11-19T04:48:53;100378.75;;;20.01;39.95
76122;BME280;70471;53.200;6.080;2023-11-19T04:53:45;100385.19;;;20.10;39.34
76122;BME280;70471;53.200;6.080;2023-11-19T04:58:37;100374.03;;;20.01;39.93
76122;BME280;70471;53.200;6.080;2023-11-19T05:03:29;100387.41;;;20.08;39.63
76122;BME280;70471;53.200;6.080;2023-11-19T05:08:23;100383.34;;;20.06;39.64
76122;BME280;70471;53.200;6.080;2023-11-19T05:13:16;100383.97;;;20.02;39.59
76122;BME280;70471;53.200;6.080;2023-11-19T05:18:08;100388.16;;;20.00;40.18
76122;BME280;70471;53.200;6.080;2023-11-19T05:23:00;100396.47;;;20.00;39.88
76122;BME280;70471;53.200;6.080;2023-11-19T05:27:54;100393.38;;;20.01;39.96
76122;BME280;70471;53.200;6.080;2023-11-19T05:32:46;100366.78;;;19.92;39.77
76122;BME280;70471;53.200;6.080;2023-11-19T05:37:38;100392.75;;;20.05;39.73
76122;BME280;70471;53.200;6.080;2023-11-19T05:42:30;100390.31;;;20.03;40.19
76122;BME280;70471;53.200;6.080;2023-11-19T05:47:24;100390.25;;;19.94;40.25
76122;BME280;70471;53.200;6.080;2023-11-19T05:52:16;100386.16;;;19.92;40.08
76122;BME280;70471;53.200;6.080;2023-11-19T05:57:08;100388.09;;;19.91;39.99
76122;BME280;70471;53.200;6.080;2023-11-19T06:02:00;100393.41;;;19.88;40.14
76122;BME280;70471;53.200;6.080;2023-11-19T06:06:55;100399.72;;;20.02;39.75
76122;BME280;70471;53.200;6.080;2023-11-19T06:11:47;100403.63;;;20.01;40.19
76122;BME280;70471;53.200;6.080;2023-11-19T06:16:39;100398.84;;;19.93;39.95
76122;BME280;70471;53.200;6.080;2023-11-19T06:21:31;100404.06;;;19.94;40.31
76122;BME280;70471;53.200;6.080;2023-11-19T06:26:25;100406.53;;;19.96;39.82
76122;BME280;70471;53.200;6.080;2023-11-19T06:31:17;100408.97;;;19.97;40.30
76122;BME280;70471;53.200;6.080;2023-11-19T06:36:09;100384.63;;;19.86;39.93
76122;BME280;70471;53.200;6.080;2023-11-19T06:41:01;100399.97;;;19.92;40.13
76122;BME280;70471;53.200;6.080;2023-11-19T06:45:56;100409.28;;;19.96;39.92
76122;BME280;70471;53.200;6.080;2023-11-19T06:50:49;100408.38;;;19.87;40.39
76122;BME280;70471;53.200;6.080;2023-11-19T06:55:41;100406.75;;;19.86;40.53
76122;BME280;70471;53.200;6.080;2023-11-19T07:00:33;100412.44;;;20.03;40.77
76122;BME280;70471;53.200;6.080;2023-11-19T07:05:28;100418.09;;;20.20;40.89
76122;BME280;70471;53.200;6.080;2023-11-19T07:10:20;100420.91;;;20.43;40.42
76122;BME280;70471;53.200;6.080;2023-11-19T07:15:13;100412.88;;;20.55;40.66
76122;BME280;70471;53.200;6.080;2023-11-19T07:20:08;100413.34;;;20.80;40.27
76122;BME280;70471;53.200;6.080;2023-11-19T07:25:02;100421.59;;;21.03;40.28
76122;BME280;70471;53.200;6.080;2023-11-19T07:29:54;100408.16;;;21.10;39.70
76122;BME280;70471;53.200;6.080;2023-11-19T07:34:46;100427.47;;;21.33;39.61
76122;BME280;70471;53.200;6.080;2023-11-19T07:39:39;100430.94;;;21.47;39.82
76122;BME280;70471;53.200;6.080;2023-11-19T07:44:33;100437.03;;;21.67;39.45
76122;BME280;70471;53.200;6.080;2023-11-19T07:49:25;100448.50;;;21.83;39.03
76122;BME280;70471;53.200;6.080;2023-11-19T07:54:17;100449.19;;;21.97;39.26
76122;BME280;70471;53.200;6.080;2023-11-19T07:59:12;100451.97;;;22.06;39.09
76122;BME280;70471;53.200;6.080;2023-11-19T08:04:06;100454.28;;;22.21;38.81
76122;BME280;70471;53.200;6.080;2023-11-19T08:08:58;100463.28;;;22.35;38.47
76122;BME280;70471;53.200;6.080;2023-11-19T08:13:50;100457.22;;;22.33;38.43
76122;BME280;70471;53.200;6.080;2023-11-19T08:18:43;100460.81;;;22.43;38.68
76122;BME280;70471;53.200;6.080;2023-11-19T08:23:36;100459.19;;;22.50;39.02
76122;BME280;70471;53.200;6.080;2023-11-19T08:28:29;100460.00;;;22.68;38.67
76122;BME280;70471;53.200;6.080;2023-11-19T08:33:21;100474.53;;;22.65;38.61
76122;BME280;70471;53.200;6.080;2023-11-19T08:38:14;100470.31;;;22.59;38.75
76122;BME280;70471;53.200;6.080;2023-11-19T08:43:07;100474.06;;;22.55;38.98
76122;BME280;70471;53.200;6.080;2023-11-19T08:48:00;100456.41;;;22.42;38.89
76122;BME280;70471;53.200;6.080;2023-11-19T08:52:52;100477.47;;;22.43;38.72
76122;BME280;70471;53.200;6.080;2023-11-19T08:57:44;100485.31;;;22.41;38.78
76122;BME280;70471;53.200;6.080;2023-11-19T09:02:38;100468.31;;;22.33;38.49
76122;BME280;70471;53.200;6.080;2023-11-19T09:07:30;100469.59;;;22.27;38.48
76122;BME280;70471;53.200;6.080;2023-11-19T09:12:22;100488.72;;;22.29;38.87
76122;BME280;70471;53.200;6.080;2023-11-19T09:17:15;100480.03;;;22.13;38.69
76122;BME280;70471;53.200;6.080;2023-11-19T09:22:10;100461.75;;;21.94;38.61
76122;BME280;70471;53.200;6.080;2023-11-19T09:27:03;100485.44;;;22.09;38.56
76122;BME280;70471;53.200;6.080;2023-11-19T09:31:55;100475.31;;;21.96;38.98
76122;BME280;70471;53.200;6.080;2023-11-19T09:36:47;100478.53;;;21.89;38.81
76122;BME280;70471;53.200;6.080;2023-11-19T09:41:41;100468.75;;;21.83;38.99
76122;BME280;70471;53.200;6.080;2023-11-19T09:46:34;100485.09;;;21.85;39.23
76122;BME280;70471;53.200;6.080;2023-11-19T09:51:28;100461.00;;;21.62;39.20
76122;BME280;70471;53.200;6.080;2023-11-19T09:56:20;100485.00;;;21.76;39.30
76122;BME280;70471;53.200;6.080;2023-11-19T10:01:14;100475.22;;;21.70;39.31
76122;BME280;70471;53.200;6.080;2023-11-19T10:06:08;100467.00;;;21.56;39.36
76122;BME280;70471;53.200;6.080;2023-11-19T10:11:00;100484.63;;;21.60;39.15
76122;BME280;70471;53.200;6.080;2023-11-19T10:15:52;100498.66;;;21.55;39.70
76122;BME280;70471;53.200;6.080;2023-11-19T10:20:47;100481.47;;;21.44;39.51
76122;BME280;70471;53.200;6.080;2023-11-19T10:25:39;100491.44;;;21.45;39.38
76122;BME280;70471;53.200;6.080;2023-11-19T10:30:31;100487.03;;;21.44;39.48
76122;BME280;70471;53.200;6.080;2023-11-19T10:35:24;100483.75;;;21.42;39.52
76122;BME280;70471;53.200;6.080;2023-11-19T10:40:18;100490.25;;;21.37;40.04
76122;BME280;70471;53.200;6.080;2023-11-19T10:45:22;100488.94;;;21.35;40.18
76122;BME280;70471;53.200;6.080;2023-11-19T10:50:15;100483.38;;;21.26;39.89
76122;BME280;70471;53.200;6.080;2023-11-19T10:55:08;100492.97;;;21.28;40.29
76122;BME280;70471;53.200;6.080;2023-11-19T11:00:09;100481.41;;;21.26;39.92
76122;BME280;70471;53.200;6.080;2023-11-19T11:05:05;100487.59;;;21.23;40.44
76122;BME280;70471;53.200;6.080;2023-11-19T11:09:58;100464.50;;;21.05;40.28
76122;BME280;70471;53.200;6.080;2023-11-19T11:14:53;100480.53;;;21.17;40.40
76122;BME280;70471;53.200;6.080;2023-11-19T11:19:47;100473.34;;;21.16;40.54
76122;BME280;70471;53.200;6.080;2023-11-19T11:24:59;100469.94;;;21.19;40.20
76122;BME280;70471;53.200;6.080;2023-11-19T11:30:02;100481.88;;;21.20;40.13
76122;BME280;70471;53.200;6.080;2023-11-19T11:35:18;100473.56;;;21.20;40.22
76122;BME280;70471;53.200;6.080;2023-11-19T11:40:15;100466.06;;;21.20;40.12
76122;BME280;70471;53.200;6.080;2023-11-19T11:45:09;100474.38;;;21.20;40.03
76122;BME280;70471;53.200;6.080;2023-11-19T11:50:07;100464.09;;;21.21;40.11
76122;BME280;70471;53.200;6.080;2023-11-19T11:55:06;100445.38;;;21.26;39.81
76122;BME280;70471;53.200;6.080;2023-11-19T12:00:02;100452.28;;;21.38;40.24
76122;BME280;70471;53.200;6.080;2023-11-19T12:04:56;100454.41;;;21.41;40.08
76122;BME280;70471;53.200;6.080;2023-11-19T12:09:52;100454.22;;;21.37;40.53
76122;BME280;70471;53.200;6.080;2023-11-19T12:15:04;100405.81;;;21.03;40.82
76122;BME280;70471;53.200;6.080;2023-11-19T12:19:57;100445.38;;;21.26;41.23
76122;BME280;70471;53.200;6.080;2023-11-19T12:24:50;100454.38;;;21.32;41.29
76122;BME280;70471;53.200;6.080;2023-11-19T12:29:42;100436.91;;;21.23;41.17
76122;BME280;70471;53.200;6.080;2023-11-19T12:34:36;100454.09;;;21.42;41.04
76122;BME280;70471;53.200;6.080;2023-11-19T12:39:29;100453.75;;;21.44;41.14
76122;BME280;70471;53.200;6.080;2023-11-19T12:44:22;100436.59;;;21.33;40.98
76122;BME280;70471;53.200;6.080;2023-11-19T12:49:14;100446.56;;;21.34;41.04
76122;BME280;70471;53.200;6.080;2023-11-19T12:54:08;100443.81;;;21.43;40.66
76122;BME280;70471;53.200;6.080;2023-11-19T12:59:10;100445.41;;;21.35;41.10
76122;BME280;70471;53.200;6.080;2023-11-19T13:04:16;100435.25;;;21.22;39.59
76122;BME280;70471;53.200;6.080;2023-11-19T13:09:21;100449.75;;;21.19;39.53
76122;BME280;70471;53.200;6.080;2023-11-19T13:14:14;100456.50;;;21.04;39.44
76122;BME280;70471;53.200;6.080;2023-11-19T13:19:06;100438.78;;;20.82;39.49
76122;BME280;70471;53.200;6.080;2023-11-19T13:23:59;100440.28;;;20.88;39.60
76122;BME280;70471;53.200;6.080;2023-11-19T13:28:53;100446.81;;;20.92;40.18
76122;BME280;70471;53.200;6.080;2023-11-19T13:33:45;100451.38;;;20.97;40.68
76122;BME280;70471;53.200;6.080;2023-11-19T13:38:38;100449.44;;;20.98;40.60
76122;BME280;70471;53.200;6.080;2023-11-19T13:43:32;100449.13;;;20.99;40.48
76122;BME280;70471;53.200;6.080;2023-11-19T13:48:26;100457.63;;;21.03;40.64
76122;BME280;70471;53.200;6.080;2023-11-19T13:53:19;100457.19;;;21.09;40.70
76122;BME280;70471;53.200;6.080;2023-11-19T13:58:12;100446.22;;;21.04;40.66
76122;BME280;70471;53.200;6.080;2023-11-19T14:03:04;100430.56;;;21.00;40.74
76122;BME280;70471;53.200;6.080;2023-11-19T14:07:58;100446.81;;;21.15;40.65
76122;BME280;70471;53.200;6.080;2023-11-19T14:12:51;100446.47;;;21.17;40.59
76122;BME280;70471;53.200;6.080;2023-11-19T14:17:44;100440.63;;;21.18;40.61
76122;BME280;70471;53.200;6.080;2023-11-19T14:22:36;100440.78;;;21.22;40.26
76122;BME280;70471;53.200;6.080;2023-11-19T14:27:29;100445.00;;;21.19;40.73
76122;BME280;70471;53.200;6.080;2023-11-19T14:32:21;100449.91;;;21.22;40.84
76122;BME280;70471;53.200;6.080;2023-11-19T14:37:14;100429.03;;;21.16;40.36
76122;BME280;70471;53.200;6.080;2023-11-19T14:42:06;100444.91;;;21.24;40.26
76122;BME280;70471;53.200;6.080;2023-11-19T14:47:00;100439.84;;;21.26;40.67
76122;BME280;70471;53.200;6.080;2023-11-19T14:51:53;100439.69;;;21.32;41.76
76122;BME280;70471;53.200;6.080;2023-11-19T14:56:45;100431.16;;;21.19;42.13
76122;BME280;70471;53.200;6.080;2023-11-19T15:01:38;100436.78;;;21.37;42.25
76122;BME280;70471;53.200;6.080;2023-11-19T15:06:32;100423.84;;;21.23;41.95
76122;BME280;70471;53.200;6.080;2023-11-19T15:11:24;100427.94;;;21.26;41.85
76122;BME280;70471;53.200;6.080;2023-11-19T15:16:16;100445.94;;;21.46;41.52
76122;BME280;70471;53.200;6.080;2023-11-19T15:21:15;100447.59;;;21.47;41.56
76122;BME280;70471;53.200;6.080;2023-11-19T15:26:09;100454.28;;;21.55;41.04
76122;BME280;70471;53.200;6.080;2023-11-19T15:31:02;100461.78;;;21.54;41.29
76122;BME280;70471;53.200;6.080;2023-11-19T15:35:54;100453.94;;;21.48;41.32
76122;BME280;70471;53.200;6.080;2023-11-19T15:40:47;100455.09;;;21.55;41.46
76122;BME280;70471;53.200;6.080;2023-11-19T15:45:40;100455.09;;;21.55;41.55
76122;BME280;70471;53.200;6.080;2023-11-19T15:50:32;100402.53;;;21.33;41.40
76122;BME280;70471;53.200;6.080;2023-11-19T15:55:24;100450.56;;;21.59;41.32
76122;BME280;70471;53.200;6.080;2023-11-19T16:00:17;100441.88;;;21.52;41.16
76122;BME280;70471;53.200;6.080;2023-11-19T16:05:14;100438.63;;;21.59;41.11
76122;BME280;70471;53.200;6.080;2023-11-19T16:10:08;100446.16;;;21.58;41.40
76122;BME280;70471;53.200;6.080;2023-11-19T16:15:03;100426.38;;;21.42;42.10
76122;BME280;70471;53.200;6.080;2023-11-19T16:19:55;100446.66;;;21.69;41.45
76122;BME280;70471;53.200;6.080;2023-11-19T16:24:49;100446.81;;;21.64;41.32
76122;BME280;70471;53.200;6.080;2023-11-19T16:29:44;100452.53;;;21.68;41.46
76122;BME280;70471;53.200;6.080;2023-11-19T16:34:36;100440.16;;;21.74;41.42
76122;BME280;70471;53.200;6.080;2023-11-19T16:39:33;100440.31;;;21.77;41.01
76122;BME280;70471;53.200;6.080;2023-11-19T16:44:27;100445.69;;;21.74;41.38
76122;BME280;70471;53.200;6.080;2023-11-19T16:49:19;100446.91;;;21.81;41.15
76122;BME280;70471;53.200;6.080;2023-11-19T16:54:11;100413.72;;;21.68;41.06
76122;BME280;70471;53.200;6.080;2023-11-19T16:59:03;100446.50;;;21.74;41.15
76122;BME280;70471;53.200;6.080;2023-11-19T17:03:57;100449.78;;;21.76;41.02
76122;BME280;70471;53.200;6.080;2023-11-19T17:08:50;100449.66;;;21.90;41.00
76122;BME280;70471;53.200;6.080;2023-11-19T17:13:42;100437.94;;;21.93;40.82
76122;BME280;70471;53.200;6.080;2023-11-19T17:18:34;100411.28;;;21.75;40.74
76122;BME280;70471;53.200;6.080;2023-11-19T17:23:30;100422.09;;;21.85;40.58
76122;BME280;70471;53.200;6.080;2023-11-19T17:28:22;100426.69;;;21.90;40.38
76122;BME280;70471;53.200;6.080;2023-11-19T17:33:15;100431.25;;;21.94;40.56
76122;BME280;70471;53.200;6.080;2023-11-19T17:38:07;100435.81;;;21.90;40.71
76122;BME280;70471;53.200;6.080;2023-11-19T17:43:01;100414.09;;;21.92;40.37
76122;BME280;70471;53.200;6.080;2023-11-19T17:47:53;100413.44;;;21.95;40.51
76122;BME280;70471;53.200;6.080;2023-11-19T17:52:45;100401.56;;;21.86;40.58
76122;BME280;70471;53.200;6.080;2023-11-19T17:57:38;100417.53;;;21.98;39.94
76122;BME280;70471;53.200;6.080;2023-11-19T18:02:32;100408.72;;;21.87;40.49
76122;BME280;70471;53.200;6.080;2023-11-19T18:07:24;100413.44;;;21.95;40.19
76122;BME280;70471;53.200;6.080;2023-11-19T18:12:16;100399.75;;;21.90;40.06
76122;BME280;70471;53.200;6.080;2023-11-19T18:17:08;100408.91;;;21.99;40.15
76122;BME280;70471;53.200;6.080;2023-11-19T18:22:03;100395.53;;;21.93;40.17
76122;BME280;70471;53.200;6.080;2023-11-19T18:26:56;100377.72;;;21.85;40.16
76122;BME280;70471;53.200;6.080;2023-11-19T18:31:48;100394.53;;;21.89;40.57
76122;BME280;70471;53.200;6.080;2023-11-19T18:36:40;100390.47;;;21.86;41.46
76122;BME280;70471;53.200;6.080;2023-11-19T18:41:34;100382.28;;;21.98;41.19
76122;BME280;70471;53.200;6.080;2023-11-19T18:46:27;100371.84;;;21.87;41.42
76122;BME280;70471;53.200;6.080;2023-11-19T18:51:19;100365.16;;;21.96;41.60
76122;BME280;70471;53.200;6.080;2023-11-19T18:56:12;100361.09;;;22.03;41.43
76122;BME280;70471;53.200;6.080;2023-11-19T19:01:05;100362.22;;;22.02;41.54
76122;BME280;70471;53.200;6.080;2023-11-19T19:06:00;100360.91;;;22.08;41.72
76122;BME280;70471;53.200;6.080;2023-11-19T19:10:52;100343.75;;;22.14;41.50
76122;BME280;70471;53.200;6.080;2023-11-19T19:15:44;100319.78;;;22.10;41.38
76122;BME280;70471;53.200;6.080;2023-11-19T19:20:38;100345.56;;;22.19;41.97
76122;BME280;70471;53.200;6.080;2023-11-19T19:25:30;100334.78;;;22.26;41.69
76122;BME280;70471;53.200;6.080;2023-11-19T19:30:22;100326.28;;;22.31;41.18
76122;BME280;70471;53.200;6.080;2023-11-19T19:35:15;100318.44;;;22.33;41.39
76122;BME280;70471;53.200;6.080;2023-11-19T19:40:11;100328.06;;;22.36;41.51
76122;BME280;70471;53.200;6.080;2023-11-19T19:45:04;100319.41;;;22.38;41.50
76122;BME280;70471;53.200;6.080;2023-11-19T19:49:56;100329.84;;;22.49;40.91
76122;BME280;70471;53.200;6.080;2023-11-19T19:54:48;100321.69;;;22.53;41.65
76122;BME280;70471;53.200;6.080;2023-11-19T19:59:43;100321.69;;;22.53;41.63
76122;BME280;70471;53.200;6.080;2023-11-19T20:04:35;100319.72;;;22.62;41.46
76122;BME280;70471;53.200;6.080;2023-11-19T20:09:27;100309.41;;;22.63;41.42
76122;BME280;70471;53.200;6.080;2023-11-19T20:14:21;100318.53;;;22.72;41.19
76122;BME280;70471;53.200;6.080;2023-11-19T20:19:17;100316.56;;;22.73;41.13
76122;BME280;70471;53.200;6.080;2023-11-19T20:24:09;100289.16;;;22.62;41.32
76122;BME280;70471;53.200;6.080;2023-11-19T20:29:01;100295.78;;;22.79;41.21
76122;BME280;70471;53.200;6.080;2023-11-19T20:33:53;100292.34;;;22.82;41.07
76122;BME280;70471;53.200;6.080;2023-11-19T20:38:46;100289.03;;;22.88;40.81
76122;BME280;70471;53.200;6.080;2023-11-19T20:43:38;100294.72;;;22.92;39.90
76122;BME280;70471;53.200;6.080;2023-11-19T20:48:30;100268.16;;;22.82;40.01
76122;BME280;70471;53.200;6.080;2023-11-19T20:53:23;100296.59;;;22.79;39.89
76122;BME280;70471;53.200;6.080;2023-11-19T20:58:17;100324.38;;;22.79;39.80
76122;BME280;70471;53.200;6.080;2023-11-19T21:03:09;100315.09;;;22.66;39.62
76122;BME280;70471;53.200;6.080;2023-11-19T21:08:02;100336.66;;;22.69;39.84
76122;BME280;70471;53.200;6.080;2023-11-19T21:12:54;100341.75;;;22.67;39.65
76122;BME280;70471;53.200;6.080;2023-11-19T21:17:48;100352.06;;;22.58;39.53
76122;BME280;70471;53.200;6.080;2023-11-19T21:22:41;100359.56;;;22.58;39.75
76122;BME280;70471;53.200;6.080;2023-11-19T21:27:33;100358.75;;;22.57;39.05
76122;BME280;70471;53.200;6.080;2023-11-19T21:32:26;100335.72;;;22.48;39.58
76122;BME280;70471;53.200;6.080;2023-11-19T21:37:20;100340.16;;;22.49;39.25
76122;BME280;70471;53.200;6.080;2023-11-19T21:42:12;100357.28;;;22.51;39.29
76122;BME280;70471;53.200;6.080;2023-11-19T21:47:04;100339.00;;;22.41;39.07
76122;BME280;70471;53.200;6.080;2023-11-19T21:51:56;100345.84;;;22.44;39.16
76122;BME280;70471;53.200;6.080;2023-11-19T21:56:50;100349.63;;;22.39;39.33
76122;BME280;70471;53.200;6.080;2023-11-19T22:01:42;100346.19;;;22.33;39.35
76122;BME280;70471;53.200;6.080;2023-11-19T22:06:35;100348.97;;;22.33;39.43
76122;BME280;70471;53.200;6.080;2023-11-19T22:11:27;100349.94;;;22.29;39.33
76122;BME280;70471;53.200;6.080;2023-11-19T22:16:21;100354.88;;;22.23;39.28
76122;BME280;70471;53.200;6.080;2023-11-19T22:21:13;100356.00;;;22.22;39.44
76122;BME280;70471;53.200;6.080;2023-11-19T22:26:07;100353.41;;;22.17;39.55
76122;BME280;70471;53.200;6.080;2023-11-19T22:30:59;100341.31;;;22.13;39.42
76122;BME280;70471;53.200;6.080;2023-11-19T22:35:53;100339.03;;;22.06;39.59
76122;BME280;70471;53.200;6.080;2023-11-19T22:40:45;100343.78;;;22.06;39.72
76122;BME280;70471;53.200;6.080;2023-11-19T22:45:37;100332.53;;;21.93;39.50
76122;BME280;70471;53.200;6.080;2023-11-19T22:50:31;100335.78;;;21.95;39.45
76122;BME280;70471;53.200;6.080;2023-11-19T22:55:26;100337.44;;;21.96;39.27
76122;BME280;70471;53.200;6.080;2023-11-19T23:00:18;100327.31;;;21.83;39.59
76122;BME280;70471;53.200;6.080;2023-11-19T23:05:18;100345.41;;;21.89;39.41
76122;BME280;70471;53.200;6.080;2023-11-19T23:10:10;100339.38;;;21.78;39.42
76122;BME280;70471;53.200;6.080;2023-11-19T23:15:04;100346.88;;;21.78;39.81
76122;BME280;70471;53.200;6.080;2023-11-19T23:20:04;100362.06;;;21.80;39.83
76122;BME280;70471;53.200;6.080;2023-11-19T23:24:57;100365.78;;;21.76;39.57
76122;BME280;70471;53.200;6.080;2023-11-19T23:29:49;100336.38;;;21.57;40.13
76122;BME280;70471;53.200;6.080;2023-11-19T23:34:43;100358.25;;;21.68;39.98
76122;BME280;70471;53.200;6.080;2023-11-19T23:39:35;100350.75;;;21.59;39.82
76122;BME280;70471;53.200;6.080;2023-11-19T23:44:27;100352.22;;;21.57;40.01
76122;BME280;70471;53.200;6.080;2023-11-19T23:49:20;100371.44;;;21.62;40.00
76122;BME280;70471;53.200;6.080;2023-11-19T23:54:14;100373.25;;;21.58;39.94
76122;BME280;70471;53.200;6.080;2023-11-19T23:59:06;100368.19;;;21.51;39.74
